MMGL/GDL METAR and TAF weather

Enter ICAO airport designator
Station Type Date Time Source
MMGL METAR 2022/01/27 21:45 UTC NOAA

MMGL 272145Z 32012KT 10SM SCT080 BKN300 26/00 A3013 RMK 8/038 CU


Station Type Date Time Source
MMGL Decoded METAR 2022/01/27 21:45 UTC NOAA

Don Miguel / Guadalaj, Mexico (MMGL) 20-31N 103-19W
Jan 27, 2022 - 04:45 PM EST / 2022.01.27 2145 UTC
Wind: from the NW (320 degrees) at 14 MPH (12 KT):0
Visibility: 10 mile(s):0
Sky conditions: mostly cloudy
Temperature: 78 F (26 C)
Dew Point: 32 F (0 C)
Relative Humidity: 18%
Pressure (altimeter): 30.13 in. Hg (1020 hPa)
ob: MMGL 272145Z 32012KT 10SM SCT080 BKN300 26/00 A3013 RMK 8/038 CU
cycle: 22

Station Type Date Time Source
MMGL TAF 2022/01/27 18:42 UTC NOAA

TAF TAF MMGL 271640Z 2718/2824 24010KT P6SM BKN300 TX25/2721Z TN08/2812Z
FM280300 00000KT P6SM BKN200
FM281400 00000KT 5SM HZ BKN200
FM282000 24010KT P6SM BKN200

Example: see airport list